Time;durP1;ratioP1;P1;durP2;ratioP2;P2;SDS_P1;SDS_P2;PMS_P1;PMS_P2;Temp;Humidity;BMP_temperature;BMP_pressure;BME280_temperature;BME280_humidity;BME280_pressure;Samples;Min_cycle;Max_cycle;Signal;HPM_P1;HPM_P2
2022/07/14 00:02:16;;;;;;;;;11.67;11.00;;;;;28.00;32.20;101635.66;5080376;27;45369;-68
2022/07/14 00:04:41;;;;;;;;;10.67;10.67;;;;;27.99;31.90;101619.41;5080261;27;46055;-68
2022/07/14 00:07:06;;;;;;;;;10.33;8.67;;;;;27.99;31.80;101623.00;5079187;27;65290;-68
2022/07/14 00:09:32;;;;;;;;;9.67;9.67;;;;;28.01;31.93;101615.47;5079503;27;64249;-68
2022/07/14 00:11:57;;;;;;;;;9.00;9.00;;;;;28.04;31.76;101617.03;5079051;27;64575;-68
2022/07/14 00:14:22;;;;;;;;;8.33;7.00;;;;;28.05;31.75;101611.41;5079747;27;46891;-68
2022/07/14 00:16:48;;;;;;;;;5.33;5.33;;;;;28.04;31.87;101595.19;5079273;27;66142;-68
2022/07/14 00:19:13;;;;;;;;;8.00;6.33;;;;;27.98;31.42;101590.41;5079252;27;62917;-68
2022/07/14 00:21:38;;;;;;;;;6.00;6.00;;;;;27.97;31.98;101583.22;5079261;27;63684;-68
2022/07/14 00:24:04;;;;;;;;;4.00;4.00;;;;;27.96;31.96;101579.59;5078984;27;72205;-68
2022/07/14 00:26:29;;;;;;;;;6.33;5.00;;;;;27.94;31.88;101580.81;5079842;27;45279;-68
2022/07/14 00:28:55;;;;;;;;;6.33;5.33;;;;;27.91;32.37;101573.81;5078807;27;63539;-68
2022/07/14 00:31:20;;;;;;;;;6.67;6.67;;;;;27.89;32.18;101573.13;5079622;27;66662;-68
2022/07/14 00:33:45;;;;;;;;;6.00;6.00;;;;;27.86;32.28;101578.94;5083441;27;47113;-68
2022/07/14 00:36:11;;;;;;;;;6.67;6.67;;;;;27.83;32.21;101571.94;5082584;27;65718;-68
2022/07/14 00:38:36;;;;;;;;;4.67;4.67;;;;;27.83;32.03;101580.13;5082773;27;54035;-68
2022/07/14 00:41:02;;;;;;;;;7.33;5.67;;;;;27.84;32.40;101581.00;5083626;27;45365;-68
2022/07/14 00:43:27;;;;;;;;;6.00;5.00;;;;;27.82;32.72;101578.44;5083502;27;45300;-68
2022/07/14 00:45:53;;;;;;;;;9.67;7.33;;;;;27.81;32.01;101586.78;5083094;27;49434;-68
2022/07/14 00:48:19;;;;;;;;;6.33;6.33;;;;;27.81;32.10;101584.06;5080714;27;67440;-68
2022/07/14 00:50:45;;;;;;;;;7.00;6.33;;;;;27.81;32.70;101584.06;5083312;27;45291;-68
2022/07/14 00:53:11;;;;;;;;;5.00;5.00;;;;;27.79;32.50;101603.38;5082544;28;46207;-68
2022/07/14 00:55:39;;;;;;;;;8.33;8.00;;;;;27.78;33.00;101606.28;5083256;27;45511;-68
2022/07/14 00:58:05;;;;;;;;;8.00;7.00;;;;;27.75;32.59;101602.00;5082906;27;45515;-68
2022/07/14 01:00:30;;;;;;;;;9.67;9.67;;;;;27.71;33.18;101600.63;5082303;27;62174;-68
2022/07/14 01:02:56;;;;;;;;;9.67;9.33;;;;;27.62;33.26;101601.66;5082734;27;45985;-68
2022/07/14 01:05:21;;;;;;;;;11.67;9.33;;;;;27.56;33.78;101603.19;5082978;27;45431;-67
2022/07/14 01:07:47;;;;;;;;;8.33;8.33;;;;;27.50;32.93;101601.16;5083255;27;45519;-67
2022/07/14 01:10:13;;;;;;;;;11.67;9.00;;;;;27.44;32.90;101610.84;5080749;28;65906;-67
2022/07/14 01:12:44;;;;;;;;;10.00;9.33;;;;;27.39;32.59;101610.50;5082600;27;46279;-68
2022/07/14 01:15:10;;;;;;;;;7.00;6.67;;;;;27.33;33.54;101613.91;5082709;27;46255;-67
2022/07/14 01:17:35;;;;;;;;;9.00;9.00;;;;;27.23;33.29;101617.63;5083113;27;45402;-67
2022/07/14 01:20:01;;;;;;;;;11.33;9.67;;;;;27.13;33.40;101616.06;5082068;27;64070;-67
2022/07/14 01:22:26;;;;;;;;;7.67;7.67;;;;;27.02;34.38;101622.69;5081876;27;58580;-67
2022/07/14 01:24:51;;;;;;;;;8.00;7.00;;;;;26.92;33.64;101633.72;5081878;27;70662;-67
2022/07/14 01:27:17;;;;;;;;;5.67;5.67;;;;;26.80;33.75;101637.78;5082549;27;45456;-67
2022/07/14 01:29:42;;;;;;;;;9.33;8.33;;;;;26.70;34.02;101626.94;5081302;27;67919;-67
2022/07/14 01:32:07;;;;;;;;;7.00;7.00;;;;;26.60;33.78;101627.09;5082113;27;65591;-67
2022/07/14 01:34:33;;;;;;;;;6.33;6.33;;;;;26.52;34.62;101632.50;5081836;27;66818;-67
2022/07/14 01:36:58;;;;;;;;;6.00;5.67;;;;;26.43;34.68;101631.59;5082256;27;46499;-67
2022/07/14 01:39:23;;;;;;;;;8.00;8.00;;;;;26.37;34.90;101627.66;5082911;27;45346;-67
2022/07/14 01:41:49;;;;;;;;;7.33;7.33;;;;;26.33;34.51;101633.56;5081138;28;71549;-66
2022/07/14 01:44:15;;;;;;;;;7.00;7.00;;;;;26.33;35.23;101623.50;5082521;27;45337;-67
2022/07/14 01:46:40;;;;;;;;;5.67;5.67;;;;;26.35;35.03;101617.91;5082085;27;45526;-67
2022/07/14 01:49:06;;;;;;;;;7.33;6.33;;;;;26.35;34.92;101623.38;5082466;27;45546;-67
2022/07/14 01:51:31;;;;;;;;;6.33;6.33;;;;;26.34;34.85;101622.50;5081819;27;50506;-67
2022/07/14 01:53:57;;;;;;;;;5.00;4.67;;;;;26.34;35.60;101618.94;5082198;27;45207;-67
2022/07/14 01:56:22;;;;;;;;;5.67;5.67;;;;;26.28;35.52;101616.84;5082664;27;45462;-67
2022/07/14 01:58:48;;;;;;;;;4.00;4.00;;;;;26.24;35.49;101609.00;5081751;27;45434;-67
2022/07/14 02:04:01;;;;;;;;;10.33;8.33;;;;;26.17;35.81;101621.53;5070016;28;45331;-67
2022/07/14 02:06:26;;;;;;;;;25.67;23.33;;;;;26.14;35.80;101615.53;5081852;27;45433;-67
2022/07/14 02:08:51;;;;;;;;;32.33;27.00;;;;;26.09;35.61;101616.88;5081804;27;45481;-67
2022/07/14 02:14:03;;;;;;;;;59.75;47.50;;;;;26.03;35.98;101611.19;5081843;28;45398;-67
2022/07/14 02:16:29;;;;;;;;;61.00;48.00;;;;;26.00;35.99;101598.72;5081657;27;45426;-68
2022/07/14 02:18:55;;;;;;;;;53.50;40.25;;;;;25.95;36.27;101602.97;5080300;28;45537;-67
2022/07/14 02:21:20;;;;;;;;;49.00;38.33;;;;;25.89;36.91;101597.13;5081239;27;45397;-67
2022/07/14 02:23:45;;;;;;;;;59.67;46.00;;;;;25.84;36.75;101596.75;5080975;27;67837;-67
2022/07/14 02:26:12;;;;;;;;;41.67;34.33;;;;;25.78;36.99;101588.34;5081139;27;62270;-67
2022/07/14 02:28:38;;;;;;;;;44.67;37.00;;;;;25.71;37.49;101575.34;5081412;27;45683;-67
2022/07/14 02:31:03;;;;;;;;;41.00;31.00;;;;;25.66;37.65;101582.31;5080762;27;45493;-67
2022/07/14 02:33:29;;;;;;;;;30.33;29.33;;;;;25.60;37.54;101583.75;5081621;27;45318;-67
2022/07/14 02:35:54;;;;;;;;;23.33;22.00;;;;;25.56;38.61;101583.22;5081972;27;45495;-67
2022/07/14 02:38:20;;;;;;;;;31.00;28.00;;;;;25.51;38.17;101595.59;5081066;27;63110;-67
2022/07/14 02:40:46;;;;;;;;;19.33;18.33;;;;;25.48;38.22;101591.31;5081382;28;46259;-67
2022/07/14 02:43:12;;;;;;;;;15.00;13.00;;;;;25.45;38.24;101588.03;5080548;27;65694;-68
2022/07/14 02:45:37;;;;;;;;;14.67;13.33;;;;;25.43;38.64;101588.22;5081305;27;45341;-67
2022/07/14 02:48:03;;;;;;;;;13.00;11.33;;;;;25.41;38.32;101587.53;5081479;27;45276;-67
2022/07/14 02:50:28;;;;;;;;;11.67;11.67;;;;;25.37;39.28;101580.66;5079691;27;47019;-67
2022/07/14 02:52:53;;;;;;;;;11.33;11.00;;;;;25.32;38.55;101572.06;5080329;27;69657;-68
2022/07/14 02:55:19;;;;;;;;;8.33;7.67;;;;;25.25;38.59;101580.88;5079802;27;51241;-67
2022/07/14 02:57:44;;;;;;;;;13.33;13.00;;;;;25.19;39.45;101584.19;5081197;27;45408;-68
2022/07/14 03:00:10;;;;;;;;;10.00;8.33;;;;;25.16;39.57;101579.09;5079934;27;72453;-67
2022/07/14 03:02:35;;;;;;;;;9.00;7.67;;;;;25.09;40.50;101581.53;5081294;27;45158;-67
2022/07/14 03:05:02;;;;;;;;;10.33;10.00;;;;;25.02;39.25;101580.47;5080281;27;62347;-67
2022/07/14 03:07:27;;;;;;;;;10.00;8.33;;;;;24.98;39.63;101580.91;5080715;27;45826;-67
2022/07/14 03:09:52;;;;;;;;;9.00;7.00;;;;;24.97;39.95;101584.66;5080760;27;46316;-67
2022/07/14 03:12:18;;;;;;;;;8.00;7.00;;;;;24.97;40.08;101576.50;5080346;27;66348;-67
2022/07/14 03:14:43;;;;;;;;;5.67;5.67;;;;;24.96;40.12;101580.22;5081044;27;45443;-67
2022/07/14 03:17:09;;;;;;;;;7.33;7.33;;;;;24.94;40.40;101580.38;5080557;27;53301;-68
2022/07/14 03:19:34;;;;;;;;;7.67;6.00;;;;;24.90;40.31;101573.50;5080355;27;45381;-68
2022/07/14 03:21:59;;;;;;;;;8.33;6.00;;;;;24.86;40.47;101574.81;5079858;27;64366;-68
2022/07/14 03:24:25;;;;;;;;;9.67;8.00;;;;;24.85;40.82;101581.25;5080401;27;62177;-68
2022/07/14 03:26:50;;;;;;;;;6.67;6.00;;;;;24.84;41.11;101572.25;5080207;27;62841;-68
2022/07/14 03:29:15;;;;;;;;;7.00;6.00;;;;;24.80;40.88;101565.41;5079598;27;70333;-68
2022/07/14 03:31:41;;;;;;;;;7.00;7.00;;;;;24.77;41.29;101569.28;5080211;27;48625;-68
2022/07/14 03:34:06;;;;;;;;;5.33;5.00;;;;;24.77;41.04;101568.44;5080154;27;65338;-68
2022/07/14 03:36:32;;;;;;;;;5.67;5.67;;;;;24.76;40.50;101569.44;5080035;27;62286;-68
2022/07/14 03:38:57;;;;;;;;;8.67;7.33;;;;;24.76;41.19;101570.28;5080003;27;68887;-67
2022/07/14 03:41:22;;;;;;;;;6.00;6.00;;;;;24.75;40.92;101573.16;5079527;27;66509;-68
2022/07/14 03:43:48;;;;;;;;;7.00;7.00;;;;;24.74;41.91;101585.03;5080398;27;45334;-68
2022/07/14 03:46:13;;;;;;;;;6.33;6.00;;;;;24.70;42.69;101578.19;5080912;27;45637;-67
2022/07/14 03:48:38;;;;;;;;;10.00;7.33;;;;;24.66;41.87;101585.78;5079718;27;54974;-68
2022/07/14 03:51:04;;;;;;;;;6.33;6.33;;;;;24.61;42.08;101572.63;5080663;27;45400;-68
2022/07/14 03:53:30;;;;;;;;;6.67;6.67;;;;;24.57;42.59;101578.50;5080174;27;45441;-68
2022/07/14 03:55:57;;;;;;;;;7.33;6.33;;;;;24.50;42.69;101574.69;5080528;27;45562;-68
2022/07/14 03:58:23;;;;;;;;;6.67;6.67;;;;;24.43;42.43;101582.56;5080154;27;46274;-68
2022/07/14 04:00:48;;;;;;;;;7.00;6.67;;;;;24.37;42.79;101575.03;5080006;27;46826;-68
2022/07/14 04:03:14;;;;;;;;;6.33;6.33;;;;;24.33;42.53;101571.75;5079240;28;45865;-68
2022/07/14 04:05:39;;;;;;;;;7.00;7.00;;;;;24.30;43.22;101574.78;5079423;27;45800;-68
2022/07/14 04:08:04;;;;;;;;;1.33;1.33;;;;;24.27;42.74;101572.34;5079974;27;46934;-68
2022/07/14 04:10:30;;;;;;;;;7.33;6.67;;;;;24.26;43.08;101573.31;5079135;27;69223;-67
2022/07/14 04:12:56;;;;;;;;;9.67;8.33;;;;;24.24;43.52;101570.75;5079894;27;47903;-67
2022/07/14 04:15:23;;;;;;;;;7.67;7.67;;;;;24.21;42.92;101581.94;5080098;27;45544;-67
2022/07/14 04:17:48;;;;;;;;;8.00;7.67;;;;;24.19;43.36;101583.94;5080180;27;45316;-68
2022/07/14 04:20:14;;;;;;;;;9.00;8.00;;;;;24.16;43.20;101578.81;5079950;27;45276;-68
2022/07/14 04:22:39;;;;;;;;;9.00;9.00;;;;;24.16;43.34;101581.53;5078849;27;67006;-68
2022/07/14 04:25:05;;;;;;;;;8.67;8.33;;;;;24.15;43.60;101581.69;5079408;27;65764;-68
2022/07/14 04:27:30;;;;;;;;;7.67;7.67;;;;;24.13;43.65;101580.97;5079723;27;46779;-68
2022/07/14 04:29:55;;;;;;;;;5.33;5.33;;;;;24.13;44.53;101583.69;5078555;27;65137;-68
2022/07/14 04:32:21;;;;;;;;;8.00;6.33;;;;;24.08;43.71;101582.25;5080031;27;45320;-68
2022/07/14 04:34:46;;;;;;;;;8.00;7.00;;;;;24.08;43.60;101586.84;5079879;27;45295;-68
2022/07/14 04:37:11;;;;;;;;;7.67;7.33;;;;;24.07;43.77;101591.41;5079513;27;53877;-68
2022/07/14 04:39:37;;;;;;;;;7.67;7.33;;;;;24.08;44.35;101587.69;5079842;27;45340;-68
2022/07/14 04:42:03;;;;;;;;;9.33;8.67;;;;;24.09;44.19;101583.97;5079885;27;45349;-68
2022/07/14 04:44:29;;;;;;;;;9.00;8.00;;;;;24.09;45.31;101589.41;5079784;27;45386;-67
2022/07/14 04:46:54;;;;;;;;;6.33;5.00;;;;;24.09;44.51;101596.69;5079106;28;46909;-68
2022/07/14 04:52:04;;;;;;;;;6.33;6.33;;;;;24.10;44.46;101591.09;5079569;28;45477;-67
2022/07/14 04:54:34;;;;;;;;;6.00;6.00;;;;;24.15;44.67;101593.41;5079778;28;45477;-67
2022/07/14 04:57:00;;;;;;;;;10.33;8.00;;;;;24.17;44.32;101588.69;5095351;27;47189;-67
2022/07/14 04:59:26;;;;;;;;;6.00;6.00;;;;;24.19;44.86;101580.38;5079078;27;45397;-67
2022/07/14 05:01:52;;;;;;;;;9.00;9.00;;;;;24.25;44.77;101586.06;5079959;27;45553;-68
2022/07/14 05:04:18;;;;;;;;;8.67;8.67;;;;;24.27;45.13;101589.50;5079497;27;45634;-67
2022/07/14 05:06:46;;;;;;;;;8.67;8.67;;;;;24.26;44.88;101597.78;5079254;27;47003;-67
2022/07/14 05:09:14;;;;;;;;;8.00;8.00;;;;;24.26;44.99;101600.50;5079437;27;45424;-67
2022/07/14 05:11:40;;;;;;;;;8.00;7.00;;;;;24.23;44.60;101593.50;5079244;27;45268;-67
2022/07/14 05:14:06;;;;;;;;;8.33;6.33;;;;;24.25;44.56;101591.50;5079390;27;45385;-67
2022/07/14 05:16:31;;;;;;;;;10.67;9.33;;;;;24.27;44.85;101592.22;5079025;27;45422;-67
2022/07/14 05:18:57;;;;;;;;;6.00;6.00;;;;;24.27;45.26;101588.63;5082379;27;45400;-67
2022/07/14 05:21:22;;;;;;;;;6.33;5.33;;;;;24.25;44.71;101591.50;5082740;27;45533;-67
2022/07/14 05:23:48;;;;;;;;;11.00;10.00;;;;;24.26;45.35;101584.19;5081947;27;46817;-68
2022/07/14 05:26:13;;;;;;;;;9.00;9.00;;;;;24.26;45.05;101586.91;5081919;27;67478;-67
2022/07/14 05:28:39;;;;;;;;;9.67;9.67;;;;;24.28;44.90;101590.34;5096617;27;45287;-67
2022/07/14 05:31:05;;;;;;;;;7.67;7.67;;;;;24.33;44.95;101592.66;5082770;27;45425;-68
2022/07/14 05:33:30;;;;;;;;;8.67;8.33;;;;;24.40;44.92;101596.47;5082108;27;45508;-67
2022/07/14 05:35:55;;;;;;;;;5.00;5.00;;;;;24.43;44.94;101607.03;5082480;27;47928;-67
2022/07/14 05:38:21;;;;;;;;;5.33;5.33;;;;;24.40;45.18;101600.03;5082435;27;45343;-67
2022/07/14 05:40:47;;;;;;;;;1.00;1.00;;;;;24.38;45.07;101604.78;5082557;27;45521;-67
2022/07/14 05:43:13;;;;;;;;;10.00;8.00;;;;;24.35;45.15;101607.78;5082113;27;52539;-67
2022/07/14 05:45:39;;;;;;;;;5.00;5.00;;;;;24.32;45.45;101601.78;5082179;27;46325;-67
2022/07/14 05:48:05;;;;;;;;;8.00;8.00;;;;;24.30;45.83;101612.81;5082380;28;45149;-67
2022/07/14 05:50:30;;;;;;;;;7.00;7.00;;;;;24.31;45.45;101608.22;5082454;27;45623;-67
2022/07/14 05:52:55;;;;;;;;;10.00;10.00;;;;;24.33;45.38;101614.38;5081790;27;62498;-67
2022/07/14 05:55:22;;;;;;;;;8.00;8.00;;;;;24.37;45.40;101613.09;5081184;27;68709;-68
2022/07/14 05:57:48;;;;;;;;;9.67;8.00;;;;;24.41;45.25;101614.50;5082011;27;45441;-67
2022/07/14 06:00:15;;;;;;;;;7.67;7.67;;;;;24.47;45.17;101619.34;5081656;27;45452;-67
2022/07/14 06:02:41;;;;;;;;;7.00;7.00;;;;;24.52;45.46;101619.75;5081237;27;45582;-67
2022/07/14 06:05:07;;;;;;;;;11.33;11.33;;;;;24.59;44.86;101612.72;5081635;27;45449;-68
2022/07/14 06:07:32;;;;;;;;;11.00;11.00;;;;;24.67;45.26;101619.31;5081817;27;45386;-68
2022/07/14 06:09:58;;;;;;;;;11.00;11.00;;;;;24.69;45.55;101614.56;5081253;27;61572;-68
2022/07/14 06:12:24;;;;;;;;;8.00;8.00;;;;;24.72;44.92;101619.72;5080940;27;45665;-68
2022/07/14 06:14:49;;;;;;;;;8.00;7.00;;;;;24.77;45.21;101615.53;5081581;27;46798;-68
2022/07/14 06:17:15;;;;;;;;;10.67;10.00;;;;;24.80;44.55;101617.09;5081141;27;71416;-67
2022/07/14 06:19:40;;;;;;;;;10.33;10.00;;;;;24.83;45.08;101614.06;5082112;27;45382;-68
2022/07/14 06:22:06;;;;;;;;;8.67;7.67;;;;;24.87;44.83;101612.75;5081553;27;45580;-68
2022/07/14 06:24:33;;;;;;;;;12.00;8.00;;;;;24.93;44.61;101614.03;5081501;27;46237;-68
2022/07/14 06:26:59;;;;;;;;;9.67;9.67;;;;;25.05;44.54;101622.84;5080231;27;45446;-69
2022/07/14 06:29:24;;;;;;;;;9.00;9.00;;;;;25.14;44.21;101619.19;5081002;27;45299;-69
2022/07/14 06:31:55;;;;;;;;;13.00;11.00;;;;;25.23;43.90;101617.44;5081668;27;45393;-68
2022/07/14 06:34:20;;;;;;;;;9.00;8.67;;;;;25.27;44.18;101610.66;5081700;27;46458;-69
2022/07/14 06:36:46;;;;;;;;;8.33;8.00;;;;;25.28;44.19;101612.38;5081042;27;45397;-68
2022/07/14 06:39:11;;;;;;;;;9.67;8.67;;;;;25.29;43.88;101618.66;5080863;27;66543;-68
2022/07/14 06:41:36;;;;;;;;;9.67;9.67;;;;;25.26;43.70;101614.38;5080822;27;66896;-68
2022/07/14 06:44:02;;;;;;;;;6.33;6.33;;;;;25.29;43.89;101622.22;5081301;27;46125;-68
2022/07/14 06:46:28;;;;;;;;;6.00;6.00;;;;;25.33;44.02;101626.38;5080938;27;45369;-69
2022/07/14 06:48:53;;;;;;;;;9.67;9.67;;;;;25.41;44.39;101629.22;5081321;27;45419;-69
2022/07/14 06:51:18;;;;;;;;;10.67;9.67;;;;;25.52;43.87;101622.66;5080020;27;66438;-70
2022/07/14 06:53:44;;;;;;;;;8.67;8.67;;;;;25.63;43.68;101621.59;5080965;27;46333;-69
2022/07/14 06:56:09;;;;;;;;;9.00;9.00;;;;;25.73;43.86;101618.78;5080385;27;64699;-69
2022/07/14 06:58:34;;;;;;;;;12.00;9.00;;;;;25.85;43.94;101625.72;5079979;27;61633;-69
2022/07/14 07:01:00;;;;;;;;;8.00;8.00;;;;;25.95;43.49;101616.59;5080709;27;50681;-69
2022/07/14 07:03:25;;;;;;;;;10.33;7.00;;;;;26.07;43.23;101616.22;5080886;27;46243;-70
2022/07/14 07:08:35;;;;;;;;;8.33;8.33;;;;;26.43;42.17;101617.97;5069511;28;45363;-70
2022/07/14 07:11:00;;;;;;;;;9.67;9.00;;;;;26.58;41.82;101610.88;5080852;27;45468;-70
2022/07/14 07:13:29;;;;;;;;;11.00;11.00;;;;;26.65;41.86;101611.09;5081098;28;48769;-70
2022/07/14 07:15:54;;;;;;;;;6.00;6.00;;;;;26.75;41.62;101610.97;5080821;27;45311;-70
2022/07/14 07:18:19;;;;;;;;;7.00;7.00;;;;;26.90;41.50;101612.06;5080114;27;61226;-71
2022/07/14 07:20:45;;;;;;;;;8.00;7.00;;;;;27.09;40.54;101612.78;5080438;27;49682;-71
2022/07/14 07:23:10;;;;;;;;;9.00;8.67;;;;;27.27;41.22;101612.66;5080585;27;46990;-71
2022/07/14 07:25:36;;;;;;;;;9.33;9.33;;;;;27.52;40.76;101613.63;5080931;27;45517;-71
2022/07/14 07:28:02;;;;;;;;;7.00;7.00;;;;;27.75;39.65;101601.16;5079582;27;66659;-70
2022/07/14 07:30:28;;;;;;;;;7.00;7.00;;;;;27.90;39.24;101604.91;5080313;27;45398;-70
2022/07/14 07:32:53;;;;;;;;;7.00;7.00;;;;;28.13;39.46;101606.97;5080743;28;46363;-71
2022/07/14 07:35:19;;;;;;;;;8.00;8.00;;;;;28.44;38.66;101606.22;5080673;27;45420;-72
2022/07/14 07:37:46;;;;;;;;;8.33;8.33;;;;;28.70;38.23;101608.72;5080231;27;45405;-71
2022/07/14 07:40:12;;;;;;;;;10.00;8.67;;;;;28.92;37.64;101609.81;5079736;27;45401;-71
2022/07/14 07:42:37;;;;;;;;;6.33;6.33;;;;;29.13;36.74;101609.19;5080222;27;47147;-71
2022/07/14 07:45:03;;;;;;;;;8.00;7.00;;;;;29.47;36.60;101607.94;5079052;27;70394;-72
2022/07/14 07:47:28;;;;;;;;;8.33;7.00;;;;;29.78;35.95;101609.78;5079907;28;46886;-72
2022/07/14 07:49:54;;;;;;;;;13.67;11.00;;;;;30.14;35.36;101614.63;5079404;28;45364;-72
2022/07/14 07:52:20;;;;;;;;;8.00;8.00;;;;;30.60;35.10;101610.00;5079723;27;45835;-73
2022/07/14 07:54:46;;;;;;;;;11.00;8.67;;;;;31.04;34.82;101605.50;5079834;27;45454;-72
2022/07/14 07:57:12;;;;;;;;;6.33;6.33;;;;;31.49;33.75;101600.72;5079719;27;45353;-73
2022/07/14 07:59:38;;;;;;;;;9.00;8.00;;;;;32.05;32.27;101605.47;5078884;28;45349;-73
2022/07/14 08:02:03;;;;;;;;;7.00;7.00;;;;;32.56;31.54;101609.00;5079522;27;45754;-73
2022/07/14 08:04:28;;;;;;;;;7.67;7.67;;;;;33.03;30.65;101609.22;5079240;27;69755;-73
2022/07/14 08:06:54;;;;;;;;;10.00;9.00;;;;;33.37;30.75;101602.75;5080084;27;45400;-73
2022/07/14 08:09:19;;;;;;;;;7.33;7.33;;;;;33.36;30.29;101606.56;5080560;27;45430;-73
2022/07/14 08:11:45;;;;;;;;;6.00;6.00;;;;;33.48;29.76;101609.56;5079672;27;45461;-72
2022/07/14 08:16:55;;;;;;;;;8.33;7.00;;;;;34.42;28.76;101599.34;5080418;28;45240;-73
2022/07/14 08:19:21;;;;;;;;;6.00;6.00;;;;;34.79;26.67;101599.63;5080100;27;45621;-73
2022/07/14 08:21:46;;;;;;;;;6.00;6.00;;;;;34.96;27.89;101599.16;5079516;27;46083;-73
2022/07/14 08:24:12;;;;;;;;;6.00;5.67;;;;;35.27;27.83;101595.56;5080046;27;45342;-73
2022/07/14 08:26:37;;;;;;;;;6.00;6.00;;;;;35.80;26.58;101600.94;5075816;27;53439;-72
2022/07/14 08:29:02;;;;;;;;;5.67;5.67;;;;;36.39;26.85;101598.72;5078823;27;64330;-73
2022/07/14 08:31:28;;;;;;;;;11.00;9.33;;;;;37.04;25.48;101595.34;5079648;28;46046;-73
2022/07/14 08:33:53;;;;;;;;;6.33;6.33;;;;;37.55;24.42;101597.81;5078246;28;45504;-73
2022/07/14 08:36:18;;;;;;;;;6.00;6.00;;;;;37.93;23.92;101604.88;5078864;27;65975;-73
2022/07/14 08:38:44;;;;;;;;;7.33;5.67;;;;;38.31;23.72;101605.50;5079375;27;45609;-73
2022/07/14 08:41:10;;;;;;;;;6.33;6.33;;;;;38.70;23.16;101600.19;5078404;27;70183;-73
2022/07/14 08:43:36;;;;;;;;;9.33;9.33;;;;;39.10;22.20;101587.34;5078889;27;45425;-73
2022/07/14 08:46:04;;;;;;;;;8.00;8.00;;;;;39.44;21.96;101582.72;5079886;27;45232;-73
2022/07/14 08:48:29;;;;;;;;;6.67;6.67;;;;;39.80;21.76;101585.25;5079608;27;45595;-73
2022/07/14 08:50:55;;;;;;;;;6.33;6.33;;;;;40.14;22.25;101582.44;5079707;28;45434;-73
2022/07/14 08:53:21;;;;;;;;;7.00;7.00;;;;;40.42;21.55;101583.34;5081299;27;45500;-73
2022/07/14 08:55:48;;;;;;;;;4.33;4.33;;;;;40.52;20.42;101591.88;5083189;27;45363;-73
2022/07/14 08:58:13;;;;;;;;;6.33;5.00;;;;;40.68;19.96;101590.97;5083120;27;45380;-75
2022/07/14 09:00:39;;;;;;;;;5.33;5.33;;;;;40.84;19.70;101589.19;5082182;28;45981;-74
2022/07/14 09:03:05;;;;;;;;;7.00;7.00;;;;;41.00;19.87;101598.63;5081566;27;65381;-74
2022/07/14 09:05:31;;;;;;;;;5.33;5.33;;;;;41.13;19.33;101593.69;5083090;27;45583;-73
2022/07/14 09:07:57;;;;;;;;;8.00;6.00;;;;;41.13;19.28;101590.91;5082943;27;45321;-74
2022/07/14 09:10:28;;;;;;;;;7.33;7.33;;;;;41.38;18.96;101595.03;5080847;27;46701;-74
2022/07/14 09:13:14;;;;;;;;;6.33;5.67;;;;;41.71;18.71;101587.50;5082781;27;45845;-74
2022/07/14 09:15:45;;;;;;;;;3.67;3.67;;;;;41.97;16.88;101575.44;5082914;27;45412;-75
2022/07/14 09:18:25;;;;;;;;;5.33;5.33;;;;;42.13;18.21;101579.16;5082851;27;45330;-74
2022/07/14 09:20:52;;;;;;;;;4.67;3.67;;;;;42.14;18.04;101580.84;5082362;27;46174;-74
2022/07/14 09:23:28;;;;;;;;;6.00;6.00;;;;;42.43;17.56;101585.19;5082189;27;45548;-75
2022/07/14 09:26:29;;;;;;;;;3.67;3.67;;;;;42.65;17.47;101576.59;5081011;28;45532;-74
2022/07/14 09:28:55;;;;;;;;;4.00;4.00;;;;;42.93;17.42;101575.28;5022834;28;46193;-75
2022/07/14 09:31:30;;;;;;;;;3.00;3.00;;;;;43.19;17.23;101575.34;5073165;27;46382;-74
2022/07/14 09:34:05;;;;;;;;;5.00;5.00;;;;;43.45;15.82;101575.34;5082366;27;45349;-74
2022/07/14 09:36:33;;;;;;;;;5.67;5.67;;;;;43.66;16.39;101575.34;5082110;27;45526;-73
2022/07/14 09:39:06;;;;;;;;;4.00;4.00;;;;;43.89;15.66;101571.94;5082002;27;45465;-75
2022/07/14 09:42:01;;;;;;;;;5.00;5.00;;;;;44.17;15.66;101574.41;5082236;27;45669;-75
2022/07/14 09:44:26;;;;;;;;;6.00;6.00;;;;;44.23;16.02;101581.69;5071917;28;73302;-75
2022/07/14 09:46:56;;;;;;;;;3.00;3.00;;;;;44.42;14.95;101576.28;5081606;27;62841;-74
2022/07/14 09:49:27;;;;;;;;;4.00;4.00;;;;;44.65;15.51;101573.94;5082031;27;45707;-76
2022/07/14 09:52:03;;;;;;;;;5.00;5.00;;;;;44.75;14.49;101571.09;5081936;27;45383;-76
2022/07/14 09:54:40;;;;;;;;;4.00;4.00;;;;;44.70;14.51;101582.31;5080926;28;45457;-75
2022/07/14 09:57:08;;;;;;;;;2.00;2.00;;;;;44.56;14.07;101580.13;5080023;27;45429;-73
2022/07/14 09:59:49;;;;;;;;;4.33;4.33;;;;;44.64;13.29;101580.66;5080632;28;45427;-74
2022/07/14 10:02:17;;;;;;;;;2.33;2.33;;;;;44.75;14.03;101587.94;5081891;28;45473;-74
2022/07/14 10:04:43;;;;;;;;;3.67;2.00;;;;;45.02;14.16;101581.00;5081622;27;45690;-74
2022/07/14 10:07:09;;;;;;;;;3.00;3.00;;;;;45.32;12.63;101579.09;5082000;27;45453;-74
2022/07/14 10:09:37;;;;;;;;;2.00;2.00;;;;;45.40;13.57;101578.50;5080117;28;66234;-74
2022/07/14 10:12:03;;;;;;;;;2.00;2.00;;;;;45.36;13.03;101574.56;5081055;28;46328;-75
2022/07/14 10:14:29;;;;;;;;;2.67;2.67;;;;;45.47;13.82;101587.41;5081620;27;45466;-75
2022/07/14 10:16:55;;;;;;;;;3.00;3.00;;;;;45.40;12.40;101578.50;5082050;27;45418;-75
2022/07/14 10:19:20;;;;;;;;;2.67;2.00;;;;;45.24;13.27;101581.44;5080400;28;48952;-75
2022/07/14 10:21:46;;;;;;;;;2.00;2.00;;;;;45.26;13.07;101587.56;5080991;27;70349;-75
2022/07/14 10:24:12;;;;;;;;;0.00;0.00;;;;;45.28;13.33;101590.06;5081085;28;70052;-75
2022/07/14 10:26:38;;;;;;;;;5.00;4.00;;;;;45.45;13.35;101578.44;5080788;28;45350;-76
2022/07/14 10:29:05;;;;;;;;;4.67;3.67;;;;;45.72;14.11;101583.50;5081457;27;45424;-74
2022/07/14 10:31:43;;;;;;;;;4.00;4.00;;;;;45.97;13.38;101583.56;5081235;28;45356;-74
2022/07/14 10:34:39;;;;;;;;;3.00;3.00;;;;;46.23;13.00;101578.47;5080327;28;45444;-75
2022/07/14 10:37:22;;;;;;;;;3.67;3.67;;;;;46.50;12.82;101577.88;5080444;28;45484;-76
2022/07/14 10:39:53;;;;;;;;;2.00;2.00;;;;;46.58;12.96;101595.22;5081851;27;45347;-75
2022/07/14 10:42:32;;;;;;;;;2.33;2.00;;;;;46.55;12.76;101588.22;5080252;28;45309;-76
2022/07/14 10:45:01;;;;;;;;;2.67;2.00;;;;;46.59;12.40;101580.03;5080013;28;45572;-75
2022/07/14 10:47:42;;;;;;;;;3.67;3.67;;;;;46.62;12.16;101574.59;5081423;27;45454;-76
2022/07/14 10:50:09;;;;;;;;;3.00;3.00;;;;;46.70;12.35;101573.13;5081445;27;45449;-74
2022/07/14 10:52:37;;;;;;;;;3.00;3.00;;;;;46.84;12.39;101578.81;5081256;27;45498;-76
2022/07/14 10:55:16;;;;;;;;;3.00;3.00;;;;;46.88;12.24;101583.50;5081313;27;45417;-75
2022/07/14 10:57:59;;;;;;;;;2.67;2.67;;;;;47.29;11.75;101575.56;5081217;27;45406;-75
2022/07/14 11:00:55;;;;;;;;;3.67;3.67;;;;;47.56;11.56;101569.19;5081293;27;45366;-75
2022/07/14 11:03:24;;;;;;;;;5.00;3.33;;;;;47.72;11.15;101564.13;5080807;27;47254;-74
2022/07/14 11:06:12;;;;;;;;;3.00;3.00;;;;;47.54;11.23;101568.69;5081272;27;45388;-74
2022/07/14 11:08:40;;;;;;;;;1.33;1.33;;;;;47.42;11.29;101573.94;5081182;27;45365;-74
2022/07/14 11:11:15;;;;;;;;;3.00;3.00;;;;;47.31;11.45;101564.84;5081083;27;45449;-75
2022/07/14 11:14:02;;;;;;;;;3.00;3.00;;;;;47.49;10.89;101574.41;5080837;28;45398;-75
2022/07/14 11:16:46;;;;;;;;;3.33;3.00;;;;;47.68;10.98;101569.53;5079635;27;45421;-75
2022/07/14 11:19:49;;;;;;;;;4.00;4.00;;;;;47.78;11.27;101574.13;5081218;27;45396;-74
2022/07/14 11:22:17;;;;;;;;;1.00;1.00;;;;;47.57;10.58;101579.31;5068758;28;45610;-73
2022/07/14 11:24:45;;;;;;;;;3.00;3.00;;;;;47.21;10.99;101579.94;5080835;27;46275;-74
2022/07/14 11:27:33;;;;;;;;;4.00;2.00;;;;;47.11;10.81;101580.94;5080520;27;45407;-76
2022/07/14 11:30:18;;;;;;;;;2.67;2.67;;;;;46.88;10.96;101575.06;5080642;27;45356;-73
2022/07/14 11:32:44;;;;;;;;;1.33;1.33;;;;;46.75;10.84;101578.66;5081183;27;45513;-74
2022/07/14 11:38:00;;;;;;;;;2.00;2.00;;;;;47.01;10.79;101567.00;5080193;27;45406;-73
2022/07/14 11:40:44;;;;;;;;;1.67;1.67;;;;;47.32;10.68;101558.91;5080101;27;45524;-74